Whiting, Indiana
Current Conditions -  °F | °C
As of 6:45 AM on Saturday 25 Oct 2014 (Local Time) from KGYY Reporting Station
Haze Haze  
Wind Chill: 57°   Ceiling: 700
Heat Index: 57°   Visibility: 4mi
Dew Point: 55°   Wind: 14mph
Humidity: 94%   Direction: 270°W
Pressure: 29.92"   Gusts: NA
Location:  41.68°N, 87.49°W
Report Text: KGYY 251145Z 27012KT 4SM BR OVC007 14/13 A2992
Loading
Personal Weather Stations






























Interactive Weather Map
Tropical Storm Tracking
New forecast layout! Learn more

10-Day Weather Forecast

Advertisements
Track Severe Weather on mobile